TimeCST,TemperatureF,Dew PointF,Humidity,Sea Level PressureIn,VisibilityMPH,Wind Direction,Wind SpeedMPH,Gust SpeedMPH,PrecipitationIn,Events,Conditions,WindDirDegrees,DateUTC
12:53 AM,50.0,46.9,89,29.83,10.0,NNW,24.2,-,0.00,,Overcast,340,2012-12-10 06:53:00
1:53 AM,48.0,45.0,89,29.84,10.0,North,18.4,-,N/A,,Overcast,350,2012-12-10 07:53:00
2:53 AM,46.9,43.0,86,29.84,10.0,North,17.3,-,0.00,,Overcast,10,2012-12-10 08:53:00
3:04 AM,46.4,42.8,87,29.85,10.0,North,19.6,-,N/A,,Overcast,360,2012-12-10 09:04:00
3:43 AM,46.4,41.0,81,29.84,10.0,North,16.1,-,N/A,,Overcast,360,2012-12-10 09:43:00
3:53 AM,46.0,41.0,83,29.84,10.0,North,13.8,-,N/A,,Overcast,360,2012-12-10 09:53:00
4:53 AM,45.0,39.0,80,29.86,10.0,NNW,16.1,-,N/A,,Overcast,340,2012-12-10 10:53:00
5:53 AM,43.0,36.0,76,29.85,10.0,North,18.4,-,N/A,,Overcast,350,2012-12-10 11:53:00
7:53 AM,37.9,33.1,83,29.91,10.0,NNW,23.0,28.8,N/A,,Overcast,330,2012-12-10 13:53:00
8:53 AM,36.0,28.9,76,29.96,10.0,NNW,23.0,-,N/A,,Overcast,340,2012-12-10 14:53:00
9:03 AM,35.6,28.4,75,29.95,10.0,NNW,20.7,28.8,N/A,,Overcast,340,2012-12-10 15:03:00
9:53 AM,36.0,28.9,76,29.96,10.0,North,17.3,-,N/A,,Overcast,350,2012-12-10 15:53:00
10:41 AM,37.4,30.2,75,29.96,10.0,NNW,15.0,-,N/A,,Overcast,340,2012-12-10 16:41:00
10:53 AM,36.0,28.9,76,29.97,10.0,NNW,18.4,24.2,N/A,,Overcast,330,2012-12-10 16:53:00
11:27 AM,37.4,30.2,75,29.96,10.0,NNW,17.3,-,N/A,,Partly Cloudy,340,2012-12-10 17:27:00
11:53 AM,41.0,32.0,70,29.96,10.0,NNW,18.4,-,N/A,,Scattered Clouds,330,2012-12-10 17:53:00
12:31 PM,37.4,28.4,70,29.95,10.0,NNW,18.4,-,N/A,,Overcast,330,2012-12-10 18:31:00
12:39 PM,37.4,28.4,70,29.94,10.0,North,17.3,24.2,N/A,,Unknown,350,2012-12-10 18:39:00
12:53 PM,36.0,27.0,70,29.94,10.0,NNW,16.1,-,N/A,,Unknown,340,2012-12-10 18:53:00
1:34 PM,35.6,28.4,75,29.93,10.0,NNW,12.7,-,N/A,,Overcast,340,2012-12-10 19:34:00
1:53 PM,36.0,28.0,73,29.94,10.0,NNW,15.0,-,N/A,,Overcast,330,2012-12-10 19:53:00
2:53 PM,36.0,27.0,70,29.97,10.0,NNW,17.3,-,N/A,,Overcast,330,2012-12-10 20:53:00
3:27 PM,33.8,26.6,75,29.98,10.0,NNW,17.3,-,N/A,,Scattered Clouds,330,2012-12-10 21:27:00
3:43 PM,35.6,26.6,70,29.99,10.0,NW,16.1,-,N/A,,Mostly Cloudy,320,2012-12-10 21:43:00
3:53 PM,35.1,27.0,72,29.99,10.0,NNW,13.8,-,N/A,,Mostly Cloudy,330,2012-12-10 21:53:00
4:53 PM,35.1,27.0,72,30.01,10.0,NNW,10.4,-,N/A,,Overcast,340,2012-12-10 22:53:00
5:53 PM,35.1,27.0,72,30.02,10.0,North,11.5,-,N/A,,Overcast,350,2012-12-10 23:53:00
6:53 PM,34.0,25.0,70,30.05,10.0,North,17.3,-,N/A,,Overcast,350,2012-12-11 00:53:00
7:53 PM,34.0,25.0,70,30.07,10.0,North,11.5,-,N/A,,Overcast,350,2012-12-11 01:53:00
8:53 PM,34.0,26.1,73,30.08,10.0,North,11.5,-,N/A,,Overcast,360,2012-12-11 02:53:00
9:53 PM,34.0,26.1,73,30.09,10.0,North,11.5,-,N/A,,Overcast,360,2012-12-11 03:53:00
10:53 PM,33.1,24.1,70,30.11,10.0,North,10.4,-,N/A,,Overcast,350,2012-12-11 04:53:00
11:53 PM,32.0,23.0,69,30.12,10.0,North,10.4,-,N/A,,Overcast,10,2012-12-11 05:53:00